Time;durP1;ratioP1;P1;durP2;ratioP2;P2;SDS_P1;SDS_P2;PMS_P1;PMS_P2;Temp;Humidity;BMP_temperature;BMP_pressure;BME280_temperature;BME280_humidity;BME280_pressure;Samples;Min_cycle;Max_cycle;Signal;HPM_P1;HPM_P2
2022/06/25 00:01:14;;;;;;;6.00;3.10;;;28.10;49.50;;;;;;5075350;28;20548;-82
2022/06/25 00:03:41;;;;;;;6.18;3.30;;;28.10;51.20;;;;;;5067983;28;20064;-83
2022/06/25 00:06:07;;;;;;;6.80;2.90;;;28.40;51.70;;;;;;5056137;28;20079;-80
2022/06/25 00:08:34;;;;;;;4.22;3.08;;;28.70;50.70;;;;;;5055546;28;20025;-81
2022/06/25 00:11:01;;;;;;;5.70;3.13;;;29.00;50.70;;;;;;5055332;28;20029;-81
2022/06/25 00:13:27;;;;;;;4.13;3.25;;;29.20;50.50;;;;;;5058254;28;20383;-82
2022/06/25 00:15:53;;;;;;;4.30;3.22;;;29.30;50.00;;;;;;5051330;28;20037;-82
2022/06/25 00:18:19;;;;;;;4.70;3.10;;;29.30;49.80;;;;;;5035866;28;20033;-81
2022/06/25 00:20:46;;;;;;;5.00;3.28;;;28.80;49.10;;;;;;5035677;28;20018;-85
2022/06/25 00:23:11;;;;;;;5.50;3.10;;;28.70;50.20;;;;;;5051324;28;20033;-89
2022/06/25 00:25:38;;;;;;;9.15;8.23;;;28.60;49.60;;;;;;5036174;28;20029;-85
2022/06/25 00:28:04;;;;;;;9.60;8.77;;;28.10;50.50;;;;;;5037153;28;20116;-82
2022/06/25 00:30:31;;;;;;;5.30;3.20;;;28.20;50.60;;;;;;5059787;28;20067;-80
2022/06/25 00:32:57;;;;;;;6.05;5.03;;;28.40;50.60;;;;;;5075563;28;20379;-82
2022/06/25 00:35:23;;;;;;;7.30;6.45;;;28.70;50.80;;;;;;5073858;28;20025;-81
2022/06/25 00:37:48;;;;;;;4.95;3.63;;;29.00;50.10;;;;;;5075273;28;20025;-83
2022/06/25 00:40:14;;;;;;;9.40;8.50;;;29.10;49.80;;;;;;5067677;28;20075;-78
2022/06/25 00:42:44;;;;;;;6.70;5.53;;;29.00;50.30;;;;;;5054299;28;20119;-78
2022/06/25 00:45:10;;;;;;;18.70;17.27;;;28.80;51.40;;;;;;5054825;28;20021;-79
2022/06/25 00:47:36;;;;;;;5.57;5.05;;;28.70;51.40;;;;;;5053068;28;20434;-77
2022/06/25 00:50:02;;;;;;;6.88;3.75;;;28.50;51.50;;;;;;5051726;28;20487;-79
2022/06/25 00:52:32;;;;;;;7.22;5.75;;;28.30;51.90;;;;;;5054418;28;20017;-79
2022/06/25 00:55:10;;;;;;;4.47;3.28;;;28.20;51.50;;;;;;5053380;28;20025;-81
2022/06/25 00:57:43;;;;;;;4.80;3.33;;;28.40;51.30;;;;;;5055927;28;20104;-82
2022/06/25 01:00:14;;;;;;;4.63;3.10;;;28.50;50.80;;;;;;5066559;28;20046;-81
2022/06/25 01:02:42;;;;;;;23.65;21.70;;;28.50;51.60;;;;;;5072753;28;20049;-79
2022/06/25 01:05:10;;;;;;;17.13;15.85;;;28.40;51.70;;;;;;5074058;28;20077;-79
2022/06/25 01:07:38;;;;;;;6.97;3.30;;;28.40;51.90;;;;;;5058238;28;20025;-79
2022/06/25 01:10:06;;;;;;;27.92;25.77;;;28.40;52.20;;;;;;5053217;28;20029;-79
2022/06/25 01:12:32;;;;;;;9.38;7.82;;;28.40;52.10;;;;;;5072851;28;20060;-80
2022/06/25 01:15:10;;;;;;;15.77;14.43;;;28.50;52.10;;;;;;4021293;28;10000665;-78
2022/06/25 01:17:50;;;;;;;5.53;3.10;;;28.50;52.10;;;;;;5063122;28;20024;-80
2022/06/25 01:20:20;;;;;;;6.93;2.97;;;28.60;52.00;;;;;;5071939;28;20475;-79
2022/06/25 01:22:46;;;;;;;12.93;11.90;;;28.60;51.70;;;;;;5071758;28;20563;-80
2022/06/25 01:25:12;;;;;;;15.00;13.80;;;28.60;51.50;;;;;;5074227;28;20024;-82
2022/06/25 01:27:38;;;;;;;23.17;21.48;;;28.50;51.60;;;;;;5061399;28;20570;-82
2022/06/25 01:30:06;;;;;;;12.68;11.63;;;28.30;52.70;;;;;;5054271;28;20028;-81
2022/06/25 01:32:32;;;;;;;5.78;3.40;;;28.00;52.90;;;;;;5053912;28;20136;-80
2022/06/25 01:34:58;;;;;;;18.05;16.65;;;28.10;52.90;;;;;;5053718;28;20025;-79
2022/06/25 01:37:24;;;;;;;19.42;18.08;;;28.20;52.70;;;;;;5062020;28;20033;-78
2022/06/25 01:39:54;;;;;;;35.47;32.65;;;28.30;53.20;;;;;;5072425;28;20145;-79
2022/06/25 01:45:04;;;;;;;7.90;4.68;;;28.40;52.80;;;;;;5067431;28;20051;-79
2022/06/25 01:47:30;;;;;;;11.20;10.25;;;28.40;52.60;;;;;;5071640;28;20024;-78
2022/06/25 01:49:56;;;;;;;6.45;3.42;;;28.50;53.00;;;;;;5074863;28;20031;-91
2022/06/25 01:52:21;;;;;;;6.10;3.65;;;28.30;53.70;;;;;;5072820;28;20024;-80
2022/06/25 01:54:47;;;;;;;6.05;3.78;;;28.20;54.90;;;;;;5072326;28;20033;-83
2022/06/25 01:57:13;;;;;;;6.45;4.30;;;27.90;56.60;;;;;;5073772;28;20028;-80
2022/06/25 01:59:38;;;;;;;5.32;3.60;;;27.60;57.10;;;;;;5073744;28;20074;-81
2022/06/25 02:02:04;;;;;;;5.43;3.80;;;27.50;57.40;;;;;;5072701;28;20455;-79
2022/06/25 02:04:30;;;;;;;6.40;3.58;;;27.40;57.50;;;;;;5070343;28;20044;-79
2022/06/25 02:06:55;;;;;;;5.63;3.83;;;27.20;58.20;;;;;;5070009;28;20025;-79
2022/06/25 02:09:21;;;;;;;7.18;3.65;;;26.70;60.20;;;;;;5073000;28;20514;-78
2022/06/25 02:11:47;;;;;;;9.13;3.70;;;25.50;61.80;;;;;;5073141;28;20024;-79
2022/06/25 02:14:12;;;;;;;4.88;3.78;;;24.50;65.30;;;;;;5070063;28;20020;-78
2022/06/25 02:16:38;;;;;;;6.90;4.13;;;23.80;69.50;;;;;;5068676;28;20047;-78
2022/06/25 02:19:04;;;;;;;6.05;4.22;;;24.00;68.10;;;;;;5072864;28;20024;-79
2022/06/25 02:21:30;;;;;;;5.63;4.28;;;24.80;66.20;;;;;;5071094;28;20119;-78
2022/06/25 02:23:56;;;;;;;6.65;4.68;;;25.10;66.50;;;;;;5065581;28;20037;-79
2022/06/25 02:26:22;;;;;;;5.82;4.30;;;25.60;64.70;;;;;;5073055;28;20024;-78
2022/06/25 02:28:47;;;;;;;6.20;4.72;;;25.90;63.50;;;;;;5071396;28;20406;-78
2022/06/25 02:31:13;;;;;;;7.35;4.80;;;26.10;63.20;;;;;;5072431;28;20033;-76
2022/06/25 02:33:39;;;;;;;6.75;4.75;;;26.40;62.90;;;;;;5069582;28;20020;-77
2022/06/25 02:36:05;;;;;;;6.10;4.50;;;26.50;62.10;;;;;;5072480;28;20024;-78
2022/06/25 02:38:30;;;;;;;6.50;4.53;;;26.50;62.30;;;;;;5072452;28;20360;-79
2022/06/25 02:40:56;;;;;;;8.32;5.05;;;26.50;62.30;;;;;;5072551;28;20052;-78
2022/06/25 02:43:22;;;;;;;6.65;5.00;;;26.40;62.50;;;;;;5070473;28;20086;-78
2022/06/25 02:45:48;;;;;;;7.35;5.00;;;26.40;62.30;;;;;;5072332;28;20025;-77
2022/06/25 02:48:13;;;;;;;8.02;4.85;;;26.30;62.90;;;;;;5071240;28;20062;-77
2022/06/25 02:50:39;;;;;;;6.28;5.20;;;26.30;62.20;;;;;;5063699;28;20021;-77
2022/06/25 02:53:05;;;;;;;7.80;4.95;;;26.30;62.40;;;;;;5072436;28;20021;-77
2022/06/25 03:00:58;;;;;;;6.72;5.28;;;26.50;61.90;;;;;;5051091;28;20036;-77
2022/06/25 03:03:24;;;;;;;6.68;4.70;;;26.50;61.90;;;;;;5032316;28;20389;-78
2022/06/25 03:05:50;;;;;;;5.07;4.57;;;26.50;61.50;;;;;;5032264;28;20033;-77
2022/06/25 03:08:16;;;;;;;6.68;4.90;;;26.20;63.20;;;;;;5059191;28;20025;-78
2022/06/25 03:10:42;;;;;;;7.55;4.57;;;25.60;64.20;;;;;;5072108;28;20024;-77
2022/06/25 03:13:08;;;;;;;7.43;5.45;;;25.30;64.80;;;;;;5072216;28;20036;-78
2022/06/25 03:15:34;;;;;;;5.55;4.57;;;25.50;64.30;;;;;;5063269;28;20024;-78
2022/06/25 03:17:59;;;;;;;5.68;4.93;;;25.70;64.10;;;;;;5032118;28;20404;-78
2022/06/25 03:20:25;;;;;;;5.93;4.88;;;25.90;64.00;;;;;;5047397;28;20465;-77
2022/06/25 03:22:51;;;;;;;6.20;4.38;;;26.20;62.80;;;;;;5032009;28;20038;-77
2022/06/25 03:25:16;;;;;;;7.45;4.10;;;26.20;62.20;;;;;;5055542;28;20024;-77
2022/06/25 03:27:42;;;;;;;6.88;5.30;;;26.30;62.00;;;;;;5072093;28;20131;-77
2022/06/25 03:30:08;;;;;;;8.10;4.70;;;25.70;63.40;;;;;;5071938;28;20048;-77
2022/06/25 03:32:34;;;;;;;8.70;5.00;;;25.60;63.90;;;;;;5073657;28;20024;-77
2022/06/25 03:34:59;;;;;;;6.20;5.05;;;25.80;63.50;;;;;;5072454;28;20035;-77
2022/06/25 03:37:25;;;;;;;7.05;4.78;;;26.10;63.00;;;;;;5075428;28;20032;-76
2022/06/25 03:39:51;;;;;;;5.95;4.22;;;26.10;62.50;;;;;;5075724;28;20425;-77
2022/06/25 03:42:17;;;;;;;5.57;3.92;;;25.30;63.10;;;;;;5066210;28;20051;-76
2022/06/25 03:44:43;;;;;;;9.63;5.13;;;24.70;65.70;;;;;;5075317;28;20360;-77
2022/06/25 03:47:08;;;;;;;6.93;5.30;;;24.90;65.50;;;;;;5075478;28;20039;-77
2022/06/25 03:49:34;;;;;;;6.68;5.32;;;25.50;64.40;;;;;;5075512;28;20082;-76
2022/06/25 03:52:00;;;;;;;7.15;5.40;;;25.70;63.60;;;;;;5073374;28;20024;-77
2022/06/25 03:54:25;;;;;;;6.53;5.40;;;26.00;63.00;;;;;;5075422;28;20102;-76
2022/06/25 03:56:51;;;;;;;8.18;5.95;;;26.20;62.70;;;;;;5075376;28;20024;-76
2022/06/25 03:59:17;;;;;;;6.70;5.43;;;26.40;62.40;;;;;;5072374;28;20073;-75
2022/06/25 04:01:42;;;;;;;6.28;4.85;;;26.50;62.00;;;;;;5072269;28;20047;-77
2022/06/25 04:04:08;;;;;;;6.45;5.40;;;26.30;63.20;;;;;;5075192;28;20029;-76
2022/06/25 04:06:34;;;;;;;9.23;6.38;;;26.30;63.00;;;;;;5075239;28;20020;-76
2022/06/25 04:09:00;;;;;;;7.28;5.50;;;26.40;62.80;;;;;;5075167;28;20115;-77
2022/06/25 04:11:26;;;;;;;6.03;5.05;;;26.60;63.00;;;;;;5072933;28;20029;-77
2022/06/25 04:13:51;;;;;;;7.95;4.82;;;26.70;62.00;;;;;;5074950;28;20031;-78
2022/06/25 04:16:17;;;;;;;6.05;4.90;;;26.90;62.00;;;;;;5073263;28;20024;-77
2022/06/25 04:18:43;;;;;;;5.60;4.38;;;27.00;61.70;;;;;;5058126;28;20025;-77
2022/06/25 04:21:09;;;;;;;7.10;4.70;;;27.20;60.90;;;;;;5062075;28;20033;-76
2022/06/25 04:23:34;;;;;;;7.00;5.10;;;27.10;60.10;;;;;;5074772;28;20032;-76
2022/06/25 04:26:00;;;;;;;6.30;4.40;;;27.30;61.00;;;;;;5056428;28;20044;-77
2022/06/25 04:31:10;;;;;;;6.05;3.90;;;27.70;59.90;;;;;;5054528;28;20083;-76
2022/06/25 04:33:35;;;;;;;6.43;5.03;;;27.80;59.10;;;;;;5055862;28;20025;-77
2022/06/25 04:36:01;;;;;;;6.10;4.15;;;28.00;59.90;;;;;;5054454;28;20025;-78
2022/06/25 04:38:27;;;;;;;5.30;4.50;;;28.20;59.70;;;;;;5068431;28;20028;-77
2022/06/25 04:40:53;;;;;;;6.70;3.95;;;28.50;58.90;;;;;;5074694;28;20438;-80
2022/06/25 04:43:18;;;;;;;6.80;3.92;;;28.50;58.10;;;;;;5066747;28;20037;-79
2022/06/25 04:45:44;;;;;;;8.38;4.55;;;28.70;58.00;;;;;;5052967;28;20033;-78
2022/06/25 04:48:10;;;;;;;6.70;4.45;;;28.90;57.80;;;;;;5035602;28;20033;-78
2022/06/25 04:50:36;;;;;;;6.78;4.18;;;29.00;57.70;;;;;;5054419;28;20025;-78
2022/06/25 04:53:01;;;;;;;4.85;4.03;;;29.10;57.70;;;;;;5055404;28;20067;-83
2022/06/25 04:55:27;;;;;;;5.97;4.38;;;29.30;57.60;;;;;;5053638;28;20024;-81
2022/06/25 04:57:53;;;;;;;8.27;4.60;;;29.40;58.10;;;;;;5054552;28;20532;-77
2022/06/25 05:00:18;;;;;;;6.78;4.38;;;29.50;58.40;;;;;;5054345;28;20075;-77
2022/06/25 05:02:44;;;;;;;6.38;4.25;;;29.60;57.90;;;;;;5054311;28;20423;-84
2022/06/25 05:05:10;;;;;;;5.80;4.28;;;29.60;57.30;;;;;;5054819;28;20112;-85
2022/06/25 05:07:35;;;;;;;5.45;4.10;;;29.40;57.50;;;;;;5054230;28;20029;-85
2022/06/25 05:10:01;;;;;;;5.47;4.50;;;29.30;58.00;;;;;;5066708;28;20372;-86
2022/06/25 05:15:11;;;;;;;5.65;3.38;;;29.40;57.40;;;;;;5068259;28;20059;-86
2022/06/25 05:17:37;;;;;;;4.35;3.47;;;29.40;56.70;;;;;;5074311;28;20613;-79
2022/06/25 05:20:04;;;;;;;7.22;3.83;;;29.40;56.50;;;;;;5073950;28;20029;-88
2022/06/25 05:22:30;;;;;;;5.47;3.25;;;29.50;56.10;;;;;;5074963;28;20051;-90
2022/06/25 05:24:55;;;;;;;5.38;3.92;;;29.50;57.10;;;;;;5074863;28;20464;-89
2022/06/25 05:27:23;;;;;;;7.85;3.67;;;29.30;57.90;;;;;;5073881;28;20051;-87
2022/06/25 05:29:49;;;;;;;4.78;3.70;;;29.10;57.40;;;;;;5073556;28;20111;-92
2022/06/25 05:32:14;;;;;;;4.30;3.33;;;29.20;57.20;;;;;;5074195;28;20093;-85
2022/06/25 05:34:40;;;;;;;4.88;3.40;;;29.10;57.80;;;;;;5053856;28;20036;-90
2022/06/25 05:37:07;;;;;;;5.13;3.55;;;29.00;57.60;;;;;;5053851;28;20402;-93
2022/06/25 05:39:33;;;;;;;4.45;3.03;;;28.80;57.90;;;;;;5054980;28;20025;-91
2022/06/25 05:41:58;;;;;;;4.55;3.40;;;29.00;58.00;;;;;;5053425;28;20029;-92
2022/06/25 05:44:24;;;;;;;4.93;3.30;;;29.00;58.90;;;;;;5053067;28;20066;-94
2022/06/25 05:46:50;;;;;;;4.95;3.50;;;29.00;58.50;;;;;;5053382;28;20029;-83
2022/06/25 05:49:16;;;;;;;6.40;3.50;;;29.30;58.40;;;;;;5053289;28;20052;-92
2022/06/25 05:51:41;;;;;;;4.50;3.20;;;29.60;57.90;;;;;;5053175;28;20049;-91
2022/06/25 05:54:07;;;;;;;4.35;3.15;;;29.80;57.50;;;;;;5052538;28;20598;-86
2022/06/25 05:56:33;;;;;;;4.90;3.10;;;29.40;58.20;;;;;;5052192;28;20033;-87
2022/06/25 05:58:58;;;;;;;4.88;3.42;;;29.40;58.60;;;;;;5053190;28;20028;-92
2022/06/25 06:01:24;;;;;;;4.10;3.17;;;29.70;58.30;;;;;;5052723;28;20500;-89
2022/06/25 06:03:50;;;;;;;4.63;3.10;;;30.00;56.50;;;;;;4701900;28;10000135;-85
2022/06/25 06:06:15;;;;;;;5.53;3.30;;;30.40;55.60;;;;;;5044230;28;20435;-85
2022/06/25 06:08:41;;;;;;;4.03;3.00;;;30.50;54.90;;;;;;5032689;28;20112;-87
2022/06/25 06:11:07;;;;;;;3.72;2.83;;;30.50;56.40;;;;;;5032597;28;20453;-91
2022/06/25 06:13:33;;;;;;;5.35;3.05;;;30.40;57.10;;;;;;5037037;28;20057;-89
2022/06/25 06:15:58;;;;;;;4.50;2.65;;;30.10;57.50;;;;;;5059017;28;20026;-90
2022/06/25 06:18:27;;;;;;;7.18;3.85;;;30.30;55.80;;;;;;5062680;28;20026;-91
2022/06/25 06:20:52;;;;;;;4.25;3.20;;;30.80;56.40;;;;;;5045448;28;20025;-84
2022/06/25 06:23:18;;;;;;;7.43;3.33;;;30.80;55.00;;;;;;5032341;28;20496;-92
2022/06/25 06:25:49;;;;;;;4.32;2.92;;;31.00;54.30;;;;;;5051258;28;20017;-92
2022/06/25 06:28:18;;;;;;;10.10;3.33;;;31.30;54.60;;;;;;5049181;28;20083;-91
2022/06/25 06:30:46;;;;;;;7.18;4.22;;;31.20;55.70;;;;;;5040899;28;20021;-91
2022/06/25 06:36:45;;;;;;;6.38;3.00;;;30.70;56.40;;;;;;5076479;28;20433;-94
2022/06/25 06:39:11;;;;;;;7.82;3.13;;;30.40;57.80;;;;;;5071057;28;20447;-92
2022/06/25 06:41:37;;;;;;;4.95;3.25;;;30.30;56.10;;;;;;5054884;28;20040;-87
2022/06/25 06:44:05;;;;;;;5.97;3.10;;;30.60;55.50;;;;;;5071442;28;20033;-91
2022/06/25 06:46:34;;;;;;;5.40;3.15;;;31.00;53.30;;;;;;5072056;28;20040;-93
2022/06/25 06:48:59;;;;;;;5.70;2.80;;;31.10;55.20;;;;;;5071548;28;20056;-94
2022/06/25 06:51:25;;;;;;;5.35;3.25;;;31.30;56.60;;;;;;5073513;28;20021;-91
2022/06/25 06:53:51;;;;;;;3.72;2.90;;;30.90;55.40;;;;;;5071316;28;20048;-87
2022/06/25 06:56:16;;;;;;;5.95;3.20;;;30.90;56.70;;;;;;5072200;28;20093;-85
2022/06/25 06:58:42;;;;;;;4.60;3.70;;;31.00;57.20;;;;;;5070941;28;20020;-85
2022/06/25 07:01:08;;;;;;;5.18;3.70;;;31.00;57.70;;;;;;5070750;28;20041;-87
2022/06/25 07:03:33;;;;;;;6.13;3.53;;;31.00;57.50;;;;;;5070928;28;20835;-85
2022/06/25 07:05:59;;;;;;;5.97;3.60;;;31.00;57.80;;;;;;5072203;28;20434;-85
2022/06/25 07:08:26;;;;;;;6.88;3.38;;;31.20;57.60;;;;;;5073725;28;20034;-85
2022/06/25 07:10:52;;;;;;;4.00;3.00;;;31.30;57.20;;;;;;5074559;28;20383;-86
2022/06/25 07:13:18;;;;;;;4.18;3.05;;;31.40;55.20;;;;;;5072682;28;20043;-91
2022/06/25 07:15:44;;;;;;;6.50;3.38;;;31.60;55.40;;;;;;5054842;28;20025;-86
2022/06/25 07:18:10;;;;;;;6.40;3.10;;;31.80;54.90;;;;;;5055023;28;20465;-83
2022/06/25 07:20:36;;;;;;;5.18;3.00;;;32.00;54.90;;;;;;5054835;28;20120;-85
2022/06/25 07:23:01;;;;;;;4.63;3.08;;;31.80;54.10;;;;;;5055160;28;20087;-88
2022/06/25 07:25:27;;;;;;;10.15;3.00;;;31.60;54.50;;;;;;5054597;28;20021;-92
2022/06/25 07:27:53;;;;;;;7.20;2.90;;;31.60;53.30;;;;;;5053385;28;20035;-86
2022/06/25 07:30:19;;;;;;;4.78;2.90;;;31.50;53.60;;;;;;5055893;28;20021;-87
2022/06/25 07:32:44;;;;;;;5.57;2.95;;;31.50;52.30;;;;;;5055608;28;20472;-81
2022/06/25 07:35:10;;;;;;;3.83;2.75;;;31.60;52.10;;;;;;5056081;28;20027;-87
2022/06/25 07:37:36;;;;;;;4.63;2.80;;;31.80;51.70;;;;;;5054507;28;20043;-81
2022/06/25 07:40:03;;;;;;;8.35;3.20;;;32.00;50.20;;;;;;5052956;28;20025;-79
2022/06/25 07:42:31;;;;;;;5.45;2.90;;;31.90;51.00;;;;;;5054596;28;20063;-83
2022/06/25 07:44:58;;;;;;;6.22;3.20;;;32.00;51.20;;;;;;5050691;28;20033;-84
2022/06/25 07:47:24;;;;;;;5.28;3.60;;;32.20;51.90;;;;;;5054529;28;20078;-83
2022/06/25 07:52:35;;;;;;;6.32;3.88;;;32.50;52.40;;;;;;5048817;28;20067;-78
2022/06/25 07:55:03;;;;;;;5.95;4.13;;;32.50;52.70;;;;;;5053090;28;20103;-78
2022/06/25 07:57:29;;;;;;;7.97;4.72;;;32.60;54.00;;;;;;5057485;28;20024;-78
2022/06/25 07:59:55;;;;;;;8.75;5.10;;;32.60;54.90;;;;;;5072460;28;20028;-83
2022/06/25 08:02:21;;;;;;;11.43;5.20;;;32.60;55.20;;;;;;5071992;28;20053;-78
2022/06/25 08:04:46;;;;;;;7.57;5.03;;;32.50;55.00;;;;;;5062224;28;20020;-79
2022/06/25 08:07:12;;;;;;;12.43;5.05;;;32.50;55.10;;;;;;5056088;28;20027;-81
2022/06/25 08:09:38;;;;;;;8.05;4.60;;;32.30;54.00;;;;;;5052114;28;20535;-81
2022/06/25 08:12:04;;;;;;;8.77;4.97;;;31.90;54.80;;;;;;5051416;28;20031;-79
2022/06/25 08:14:30;;;;;;;7.40;4.50;;;31.70;56.10;;;;;;5051929;28;20028;-78
2022/06/25 08:16:55;;;;;;;8.70;4.90;;;31.60;55.60;;;;;;5053704;28;20025;-80
2022/06/25 08:19:22;;;;;;;8.48;5.30;;;31.40;55.10;;;;;;5051452;28;20043;-77
2022/06/25 08:21:47;;;;;;;8.15;4.78;;;31.30;55.00;;;;;;5051947;28;20021;-77
2022/06/25 08:24:13;;;;;;;6.65;4.47;;;31.30;55.50;;;;;;5051327;28;20044;-89
2022/06/25 08:26:39;;;;;;;7.80;4.40;;;31.60;55.50;;;;;;5050923;28;20035;-77
2022/06/25 08:29:04;;;;;;;6.72;4.18;;;31.70;54.80;;;;;;5052263;28;20036;-78
2022/06/25 08:31:30;;;;;;;8.70;4.65;;;31.60;55.10;;;;;;5050042;28;20025;-78
2022/06/25 08:33:56;;;;;;;9.35;5.20;;;31.80;55.00;;;;;;5056149;28;20029;-89
2022/06/25 08:36:22;;;;;;;7.15;4.30;;;31.60;54.00;;;;;;5067745;28;20773;-79
2022/06/25 08:38:48;;;;;;;6.25;4.30;;;31.20;54.70;;;;;;5064219;28;20480;-82
2022/06/25 08:41:14;;;;;;;7.00;3.80;;;31.10;56.10;;;;;;5058140;28;20475;-81
2022/06/25 08:43:41;;;;;;;5.85;4.22;;;31.30;55.50;;;;;;5052573;28;20051;-82
2022/06/25 08:46:07;;;;;;;8.82;4.57;;;31.50;54.60;;;;;;5051018;28;20021;-83
2022/06/25 08:48:34;;;;;;;7.13;4.18;;;31.50;54.20;;;;;;5051682;28;20036;-78
2022/06/25 08:51:01;;;;;;;6.75;4.18;;;31.30;54.30;;;;;;5050747;28;20486;-85
2022/06/25 08:53:34;;;;;;;6.70;4.60;;;31.20;54.80;;;;;;5056787;28;20032;-81
2022/06/25 08:56:01;;;;;;;7.28;4.10;;;31.50;54.80;;;;;;5030518;28;20415;-78
2022/06/25 08:58:28;;;;;;;9.05;4.90;;;31.70;55.60;;;;;;5032182;28;20017;-76
2022/06/25 09:00:54;;;;;;;5.68;4.30;;;31.90;54.70;;;;;;5031750;28;20079;-79
2022/06/25 09:03:20;;;;;;;6.28;4.20;;;32.10;55.30;;;;;;4703327;28;9999724;-77
2022/06/25 09:05:46;;;;;;;5.03;3.92;;;32.30;55.50;;;;;;5070647;28;20521;-85
2022/06/25 09:08:15;;;;;;;6.78;4.28;;;32.40;54.30;;;;;;5060334;28;20112;-77
2022/06/25 09:10:46;;;;;;;5.85;3.90;;;32.30;53.30;;;;;;5050748;28;20379;-76
2022/06/25 09:13:14;;;;;;;6.60;4.25;;;32.10;53.70;;;;;;5042663;28;20052;-78
2022/06/25 09:15:46;;;;;;;6.30;4.18;;;32.20;53.70;;;;;;5065969;28;20069;-79
2022/06/25 09:18:15;;;;;;;5.53;4.20;;;32.30;54.20;;;;;;5061798;28;20021;-80
2022/06/25 09:21:10;;;;;;;7.40;4.10;;;32.50;54.40;;;;;;5062549;28;20025;-76
2022/06/25 09:23:55;;;;;;;6.13;4.20;;;32.40;54.60;;;;;;5051515;28;20511;-77
2022/06/25 09:26:21;;;;;;;6.55;4.05;;;32.50;55.20;;;;;;5060469;28;20022;-75
2022/06/25 09:28:47;;;;;;;5.65;3.80;;;32.30;55.40;;;;;;5063235;28;20024;-76
2022/06/25 09:31:32;;;;;;;9.07;3.80;;;32.40;55.40;;;;;;5063886;28;20112;-78
2022/06/25 09:34:02;;;;;;;6.38;3.78;;;32.70;55.80;;;;;;5064164;28;20078;-80
2022/06/25 09:36:28;;;;;;;6.35;3.60;;;32.20;55.70;;;;;;5060575;28;20017;-90
2022/06/25 09:38:54;;;;;;;7.15;4.10;;;31.90;56.30;;;;;;5054860;28;20032;-82
2022/06/25 09:41:23;;;;;;;5.97;4.00;;;31.90;56.70;;;;;;5065611;28;20028;-79
2022/06/25 09:43:50;;;;;;;7.72;4.00;;;32.10;56.30;;;;;;5064546;28;20131;-77
2022/06/25 09:46:16;;;;;;;5.85;4.10;;;32.30;56.20;;;;;;5060647;28;20016;-78
2022/06/25 09:48:42;;;;;;;7.22;4.00;;;32.60;55.20;;;;;;5054416;28;20033;-85
2022/06/25 09:51:26;;;;;;;12.93;4.50;;;32.40;55.00;;;;;;5047388;28;20026;-76
2022/06/25 09:53:54;;;;;;;5.55;4.10;;;32.60;54.80;;;;;;5046395;28;20028;-79
2022/06/25 09:56:22;;;;;;;8.02;3.70;;;32.70;55.10;;;;;;5049215;28;20064;-76
2022/06/25 09:58:49;;;;;;;5.50;3.90;;;32.90;55.90;;;;;;5063639;28;20090;-77
2022/06/25 10:01:20;;;;;;;8.45;4.45;;;33.20;55.60;;;;;;5049283;28;20049;-85
2022/06/25 10:03:47;;;;;;;5.00;4.00;;;33.20;55.00;;;;;;5061207;28;20041;-76
2022/06/25 10:06:18;;;;;;;5.82;3.90;;;32.80;54.30;;;;;;5051027;28;20099;-83
2022/06/25 10:08:59;;;;;;;5.07;3.95;;;32.70;54.80;;;;;;5047510;28;20028;-80
2022/06/25 10:11:29;;;;;;;7.38;4.20;;;32.70;55.10;;;;;;5071930;28;20028;-76
2022/06/25 10:13:55;;;;;;;8.10;4.18;;;33.10;54.70;;;;;;5067147;28;20028;-79
2022/06/25 10:16:23;;;;;;;5.43;3.83;;;33.20;54.90;;;;;;5055421;28;20040;-80
2022/06/25 10:18:52;;;;;;;9.65;4.13;;;33.10;54.70;;;;;;5053136;28;20052;-90
2022/06/25 10:21:19;;;;;;;5.75;3.95;;;33.00;53.90;;;;;;5051214;28;20035;-77
2022/06/25 10:23:50;;;;;;;7.18;4.03;;;32.90;54.90;;;;;;5049546;28;20064;-77
2022/06/25 10:26:16;;;;;;;6.70;3.90;;;33.10;53.50;;;;;;5053032;28;20536;-78
2022/06/25 10:28:43;;;;;;;7.32;4.18;;;33.10;54.20;;;;;;5050334;28;20391;-81
2022/06/25 10:31:15;;;;;;;6.18;3.85;;;33.40;54.60;;;;;;5050309;28;20033;-86
2022/06/25 10:33:59;;;;;;;8.13;4.07;;;33.60;54.10;;;;;;5041417;28;20031;-81
2022/06/25 10:36:42;;;;;;;6.88;4.10;;;33.80;53.60;;;;;;5062808;28;20104;-81
2022/06/25 10:39:28;;;;;;;6.40;3.78;;;33.80;53.50;;;;;;5068661;28;20020;-77
2022/06/25 10:45:15;;;;;;;5.07;3.97;;;33.70;53.30;;;;;;5053490;28;20102;-85
2022/06/25 10:47:46;;;;;;;6.45;3.90;;;33.70;54.30;;;;;;5040078;28;20031;-77
2022/06/25 10:50:21;;;;;;;9.20;4.32;;;33.60;53.30;;;;;;5054068;28;20043;-80
2022/06/25 10:53:02;;;;;;;6.53;4.10;;;33.90;53.70;;;;;;5053366;28;20365;-80
2022/06/25 10:55:39;;;;;;;6.25;4.15;;;34.00;53.70;;;;;;5071155;28;20669;-80
2022/06/25 10:58:12;;;;;;;7.88;4.20;;;34.30;53.00;;;;;;5045161;28;20029;-80
2022/06/25 11:00:54;;;;;;;7.28;3.85;;;34.10;52.50;;;;;;5074413;28;20100;-79
2022/06/25 11:03:30;;;;;;;7.70;3.70;;;34.30;53.40;;;;;;5043049;28;20095;-78
2022/06/25 11:06:16;;;;;;;9.75;4.43;;;34.00;53.30;;;;;;5055002;28;20021;-84
2022/06/25 11:08:41;;;;;;;8.70;4.15;;;33.80;53.00;;;;;;5064963;28;20107;-85
2022/06/25 11:11:07;;;;;;;8.75;3.80;;;33.70;53.90;;;;;;5072777;28;20033;-80
2022/06/25 11:13:34;;;;;;;5.93;3.85;;;33.40;53.60;;;;;;5073482;28;20059;-76
2022/06/25 11:15:59;;;;;;;10.25;4.00;;;33.40;54.00;;;;;;5058171;28;20040;-86
2022/06/25 11:18:25;;;;;;;5.93;3.80;;;33.80;53.80;;;;;;5054345;28;20029;-80
2022/06/25 11:20:51;;;;;;;6.70;3.50;;;33.80;53.50;;;;;;5052411;28;20025;-77
2022/06/25 11:23:17;;;;;;;7.20;3.60;;;34.00;53.80;;;;;;5065652;28;20386;-78
2022/06/25 11:28:52;;;;;;;6.80;3.70;;;33.70;53.20;;;;;;5074699;28;20544;-90
2022/06/25 11:31:22;;;;;;;8.15;3.65;;;33.90;54.80;;;;;;5075489;28;20024;-85
2022/06/25 11:33:48;;;;;;;;;;;34.10;53.10;;;;;;5034938;28;20029;-80
2022/06/25 11:36:15;;;;;;;8.23;4.22;;;34.00;53.40;;;;;;5036752;28;19905;-81
2022/06/25 11:38:44;;;;;;;5.47;3.63;;;33.70;53.50;;;;;;5052716;28;20033;-79
2022/06/25 11:41:20;;;;;;;8.13;3.42;;;33.80;53.30;;;;;;5054129;28;20029;-79
2022/06/25 11:43:46;;;;;;;8.95;3.90;;;34.00;53.60;;;;;;5053533;28;20477;-77
2022/06/25 11:46:18;;;;;;;5.35;3.40;;;33.70;53.00;;;;;;5053484;28;20402;-79
2022/06/25 11:48:47;;;;;;;7.88;3.50;;;33.50;53.50;;;;;;5053854;28;20036;-77
2022/06/25 11:51:16;;;;;;;5.32;3.20;;;33.50;53.40;;;;;;5054432;28;20029;-84
2022/06/25 11:53:42;;;;;;;6.10;3.20;;;33.70;54.20;;;;;;5052396;28;20025;-80
2022/06/25 11:56:08;;;;;;;6.53;2.88;;;34.00;53.40;;;;;;5068131;28;20077;-75
2022/06/25 11:58:36;;;;;;;4.53;2.78;;;33.80;53.20;;;;;;5053456;28;20039;-79
2022/06/25 12:01:04;;;;;;;6.90;3.10;;;33.80;54.00;;;;;;5053306;28;20494;-78
2022/06/25 12:03:31;;;;;;;7.35;2.88;;;33.80;53.20;;;;;;5057126;28;20056;-82
2022/06/25 12:05:58;;;;;;;5.63;2.75;;;33.60;53.50;;;;;;5053155;28;20017;-79
2022/06/25 12:08:25;;;;;;;3.95;2.70;;;33.30;54.00;;;;;;5053578;28;20115;-80
2022/06/25 12:10:53;;;;;;;4.20;2.40;;;33.30;53.50;;;;;;5055832;28;20391;-80
2022/06/25 12:13:20;;;;;;;7.35;2.65;;;33.40;53.70;;;;;;5055027;28;20249;-80
2022/06/25 12:15:47;;;;;;;5.88;2.50;;;33.40;53.30;;;;;;5052366;28;20057;-76
2022/06/25 12:18:13;;;;;;;4.72;2.60;;;33.40;53.50;;;;;;5051820;28;20029;-77
2022/06/25 12:20:58;;;;;;;5.93;2.60;;;33.50;54.10;;;;;;5053047;28;20032;-78
2022/06/25 12:23:24;;;;;;;4.75;2.40;;;33.80;53.20;;;;;;5054092;28;20144;-77
2022/06/25 12:25:50;;;;;;;6.05;2.70;;;33.70;53.10;;;;;;5073078;28;20100;-82
2022/06/25 12:28:16;;;;;;;3.50;2.30;;;33.60;53.50;;;;;;5060998;28;20033;-81
2022/06/25 12:30:42;;;;;;;3.72;2.40;;;33.60;53.40;;;;;;5054307;28;20025;-84
2022/06/25 12:33:14;;;;;;;3.88;2.30;;;33.90;53.50;;;;;;5050724;28;20033;-78
2022/06/25 12:35:41;;;;;;;6.45;2.40;;;33.80;53.00;;;;;;5063423;28;20025;-81
2022/06/25 12:38:07;;;;;;;5.85;1.98;;;33.80;53.00;;;;;;5050443;28;20124;-77
2022/06/25 12:40:42;;;;;;;6.43;2.10;;;33.50;52.60;;;;;;5061325;28;20024;-78
2022/06/25 12:43:09;;;;;;;5.90;2.28;;;33.50;52.90;;;;;;5051660;28;20171;-82
2022/06/25 12:45:40;;;;;;;4.22;2.20;;;33.50;52.70;;;;;;5053519;28;20059;-76
2022/06/25 12:48:09;;;;;;;4.43;2.40;;;33.50;52.90;;;;;;5051565;28;20025;-86
2022/06/25 12:50:39;;;;;;;7.72;2.22;;;33.20;52.40;;;;;;5054017;28;20025;-82
2022/06/25 12:53:16;;;;;;;8.35;2.20;;;32.90;53.30;;;;;;5046529;28;20380;-78
2022/06/25 12:55:47;;;;;;;3.38;2.03;;;32.90;52.60;;;;;;5058176;28;20032;-76
2022/06/25 12:58:14;;;;;;;4.50;2.00;;;33.00;53.40;;;;;;5047438;28;20035;-77
2022/06/25 13:00:43;;;;;;;4.93;2.20;;;33.20;52.90;;;;;;5054477;28;20441;-79
2022/06/25 13:03:09;;;;;;;5.63;2.28;;;33.50;53.20;;;;;;5058761;28;20055;-87
2022/06/25 13:05:36;;;;;;;3.28;2.15;;;33.80;53.30;;;;;;5046222;28;20112;-80
2022/06/25 13:08:03;;;;;;;3.70;2.10;;;34.00;52.30;;;;;;5042710;28;20029;-81
2022/06/25 13:10:29;;;;;;;4.00;2.25;;;34.10;51.90;;;;;;5061772;28;20024;-82
2022/06/25 13:12:55;;;;;;;4.45;2.38;;;34.00;52.10;;;;;;5072658;28;20750;-78